sensor_id;sensor_type;location;lat;lon;timestamp;temperature;humidity
21906;DHT22;11117;48.644;9.006;2023-04-01T00:00:22;8.00;99.90
21906;DHT22;11117;48.644;9.006;2023-04-01T00:02:47;8.10;99.90
21906;DHT22;11117;48.644;9.006;2023-04-01T00:05:14;8.10;99.90
21906;DHT22;11117;48.644;9.006;2023-04-01T00:07:40;8.10;99.90
21906;DHT22;11117;48.644;9.006;2023-04-01T00:10:07;8.10;99.90
21906;DHT22;11117;48.644;9.006;2023-04-01T00:12:34;8.10;99.90
21906;DHT22;11117;48.644;9.006;2023-04-01T00:15:00;8.10;99.90
21906;DHT22;11117;48.644;9.006;2023-04-01T00:17:25;8.00;99.90
21906;DHT22;11117;48.644;9.006;2023-04-01T00:19:51;7.90;99.90
21906;DHT22;11117;48.644;9.006;2023-04-01T00:22:16;8.00;99.90
21906;DHT22;11117;48.644;9.006;2023-04-01T00:24:42;8.00;99.90
21906;DHT22;11117;48.644;9.006;2023-04-01T00:27:08;8.10;99.90
21906;DHT22;11117;48.644;9.006;2023-04-01T00:29:34;8.10;99.90
21906;DHT22;11117;48.644;9.006;2023-04-01T00:31:59;8.10;99.90
21906;DHT22;11117;48.644;9.006;2023-04-01T00:34:25;8.00;99.90
21906;DHT22;11117;48.644;9.006;2023-04-01T00:36:52;8.10;99.90
21906;DHT22;11117;48.644;9.006;2023-04-01T00:39:19;8.10;99.90
21906;DHT22;11117;48.644;9.006;2023-04-01T00:41:45;8.10;99.90
21906;DHT22;11117;48.644;9.006;2023-04-01T00:44:22;8.10;99.90
21906;DHT22;11117;48.644;9.006;2023-04-01T00:46:49;8.10;99.90
21906;DHT22;11117;48.644;9.006;2023-04-01T00:49:16;8.30;99.90
21906;DHT22;11117;48.644;9.006;2023-04-01T00:51:43;8.20;99.90
21906;DHT22;11117;48.644;9.006;2023-04-01T00:54:11;8.20;99.90
21906;DHT22;11117;48.644;9.006;2023-04-01T00:56:41;8.20;99.90
21906;DHT22;11117;48.644;9.006;2023-04-01T00:59:13;8.20;99.90
21906;DHT22;11117;48.644;9.006;2023-04-01T01:01:39;8.20;99.90
21906;DHT22;11117;48.644;9.006;2023-04-01T01:04:05;8.00;99.90
21906;DHT22;11117;48.644;9.006;2023-04-01T01:12:21;8.10;99.90
21906;DHT22;11117;48.644;9.006;2023-04-01T01:23:38;8.10;99.90
21906;DHT22;11117;48.644;9.006;2023-04-01T01:29:12;7.90;99.90
21906;DHT22;11117;48.644;9.006;2023-04-01T01:31:50;7.90;99.90
21906;DHT22;11117;48.644;9.006;2023-04-01T01:34:32;7.90;99.90
21906;DHT22;11117;48.644;9.006;2023-04-01T01:37:05;7.90;99.90
21906;DHT22;11117;48.644;9.006;2023-04-01T01:39:34;7.90;99.90
21906;DHT22;11117;48.644;9.006;2023-04-01T01:42:04;7.80;99.90
21906;DHT22;11117;48.644;9.006;2023-04-01T01:44:32;7.80;99.90
21906;DHT22;11117;48.644;9.006;2023-04-01T01:46:59;7.70;99.90
21906;DHT22;11117;48.644;9.006;2023-04-01T01:49:25;7.60;99.90
21906;DHT22;11117;48.644;9.006;2023-04-01T01:51:53;7.60;99.90
21906;DHT22;11117;48.644;9.006;2023-04-01T01:54:19;7.60;99.90
21906;DHT22;11117;48.644;9.006;2023-04-01T01:56:47;7.70;99.90
21906;DHT22;11117;48.644;9.006;2023-04-01T01:59:16;7.70;99.90
21906;DHT22;11117;48.644;9.006;2023-04-01T02:01:46;7.70;99.90
21906;DHT22;11117;48.644;9.006;2023-04-01T02:04:14;7.70;99.90
21906;DHT22;11117;48.644;9.006;2023-04-01T02:06:50;7.50;99.90
21906;DHT22;11117;48.644;9.006;2023-04-01T02:09:18;7.40;99.90
21906;DHT22;11117;48.644;9.006;2023-04-01T02:11:48;7.50;99.90
21906;DHT22;11117;48.644;9.006;2023-04-01T02:14:17;7.40;99.90
21906;DHT22;11117;48.644;9.006;2023-04-01T02:16:56;7.50;99.90
21906;DHT22;11117;48.644;9.006;2023-04-01T02:19:32;7.50;99.90
21906;DHT22;11117;48.644;9.006;2023-04-01T02:22:02;7.50;99.90
21906;DHT22;11117;48.644;9.006;2023-04-01T02:24:31;7.50;99.90
21906;DHT22;11117;48.644;9.006;2023-04-01T02:26:58;7.60;99.90
21906;DHT22;11117;48.644;9.006;2023-04-01T02:29:24;7.60;99.90
21906;DHT22;11117;48.644;9.006;2023-04-01T02:31:52;7.50;99.90
21906;DHT22;11117;48.644;9.006;2023-04-01T02:34:19;7.50;99.90
21906;DHT22;11117;48.644;9.006;2023-04-01T02:36:46;7.60;99.90
21906;DHT22;11117;48.644;9.006;2023-04-01T02:39:13;7.60;99.90
21906;DHT22;11117;48.644;9.006;2023-04-01T02:41:43;7.60;99.90
21906;DHT22;11117;48.644;9.006;2023-04-01T02:44:11;7.60;99.90
21906;DHT22;11117;48.644;9.006;2023-04-01T02:46:37;7.50;99.90
21906;DHT22;11117;48.644;9.006;2023-04-01T02:49:03;7.50;99.90
21906;DHT22;11117;48.644;9.006;2023-04-01T02:51:28;7.50;99.90
21906;DHT22;11117;48.644;9.006;2023-04-01T02:53:54;7.50;99.90
21906;DHT22;11117;48.644;9.006;2023-04-01T02:56:20;7.50;99.90
21906;DHT22;11117;48.644;9.006;2023-04-01T02:58:46;7.50;99.90
21906;DHT22;11117;48.644;9.006;2023-04-01T03:01:12;7.50;99.90
21906;DHT22;11117;48.644;9.006;2023-04-01T03:03:37;7.50;99.90
21906;DHT22;11117;48.644;9.006;2023-04-01T03:06:07;7.50;99.90
21906;DHT22;11117;48.644;9.006;2023-04-01T03:08:33;7.60;99.90
21906;DHT22;11117;48.644;9.006;2023-04-01T03:10:58;7.50;99.90
21906;DHT22;11117;48.644;9.006;2023-04-01T03:13:24;7.60;99.90
21906;DHT22;11117;48.644;9.006;2023-04-01T03:15:49;7.50;99.90
21906;DHT22;11117;48.644;9.006;2023-04-01T03:18:15;7.50;99.90
21906;DHT22;11117;48.644;9.006;2023-04-01T03:20:41;7.50;99.90
21906;DHT22;11117;48.644;9.006;2023-04-01T03:23:07;7.50;99.90
21906;DHT22;11117;48.644;9.006;2023-04-01T03:25:33;7.50;99.90
21906;DHT22;11117;48.644;9.006;2023-04-01T03:27:58;7.50;99.90
21906;DHT22;11117;48.644;9.006;2023-04-01T03:30:24;7.50;99.90
21906;DHT22;11117;48.644;9.006;2023-04-01T03:32:49;7.60;99.90
21906;DHT22;11117;48.644;9.006;2023-04-01T03:35:15;7.60;99.90
21906;DHT22;11117;48.644;9.006;2023-04-01T03:37:41;7.60;99.90
21906;DHT22;11117;48.644;9.006;2023-04-01T03:40:07;7.70;99.90
21906;DHT22;11117;48.644;9.006;2023-04-01T03:42:33;7.60;99.90
21906;DHT22;11117;48.644;9.006;2023-04-01T03:44:58;7.60;99.90
21906;DHT22;11117;48.644;9.006;2023-04-01T03:47:24;7.60;99.90
21906;DHT22;11117;48.644;9.006;2023-04-01T03:49:49;7.60;99.90
21906;DHT22;11117;48.644;9.006;2023-04-01T03:52:15;7.60;99.90
21906;DHT22;11117;48.644;9.006;2023-04-01T03:54:41;7.60;99.90
21906;DHT22;11117;48.644;9.006;2023-04-01T03:57:06;7.70;99.90
21906;DHT22;11117;48.644;9.006;2023-04-01T03:59:32;7.60;99.90
21906;DHT22;11117;48.644;9.006;2023-04-01T04:01:57;7.50;99.90
21906;DHT22;11117;48.644;9.006;2023-04-01T04:04:23;7.50;99.90
21906;DHT22;11117;48.644;9.006;2023-04-01T04:06:50;7.40;99.90
21906;DHT22;11117;48.644;9.006;2023-04-01T04:09:16;7.30;99.90
21906;DHT22;11117;48.644;9.006;2023-04-01T04:11:41;7.30;99.90
21906;DHT22;11117;48.644;9.006;2023-04-01T04:14:07;7.30;99.90
21906;DHT22;11117;48.644;9.006;2023-04-01T04:16:35;7.20;99.90
21906;DHT22;11117;48.644;9.006;2023-04-01T04:19:01;7.20;99.90
21906;DHT22;11117;48.644;9.006;2023-04-01T04:21:26;7.10;99.90
21906;DHT22;11117;48.644;9.006;2023-04-01T04:23:52;7.10;99.90
21906;DHT22;11117;48.644;9.006;2023-04-01T04:26:17;7.10;99.90
21906;DHT22;11117;48.644;9.006;2023-04-01T04:28:43;7.00;99.90
21906;DHT22;11117;48.644;9.006;2023-04-01T04:31:09;7.00;99.90
21906;DHT22;11117;48.644;9.006;2023-04-01T04:33:34;6.90;99.90
21906;DHT22;11117;48.644;9.006;2023-04-01T04:36:01;6.80;99.90
21906;DHT22;11117;48.644;9.006;2023-04-01T04:38:27;6.90;99.90
21906;DHT22;11117;48.644;9.006;2023-04-01T04:40:53;6.90;99.90
21906;DHT22;11117;48.644;9.006;2023-04-01T04:43:19;6.90;99.90
21906;DHT22;11117;48.644;9.006;2023-04-01T04:45:45;7.00;99.90
21906;DHT22;11117;48.644;9.006;2023-04-01T04:48:13;7.00;99.90
21906;DHT22;11117;48.644;9.006;2023-04-01T04:50:40;7.10;99.90
21906;DHT22;11117;48.644;9.006;2023-04-01T04:53:06;7.10;99.90
21906;DHT22;11117;48.644;9.006;2023-04-01T04:55:31;7.20;99.90
21906;DHT22;11117;48.644;9.006;2023-04-01T04:57:57;7.20;99.90
21906;DHT22;11117;48.644;9.006;2023-04-01T05:00:22;7.20;99.90
21906;DHT22;11117;48.644;9.006;2023-04-01T05:02:48;7.20;99.90
21906;DHT22;11117;48.644;9.006;2023-04-01T05:05:14;7.10;99.90
21906;DHT22;11117;48.644;9.006;2023-04-01T05:07:39;7.10;99.90
21906;DHT22;11117;48.644;9.006;2023-04-01T05:10:05;7.20;99.90
21906;DHT22;11117;48.644;9.006;2023-04-01T05:12:31;7.20;99.90
21906;DHT22;11117;48.644;9.006;2023-04-01T05:14:56;7.40;99.90
21906;DHT22;11117;48.644;9.006;2023-04-01T05:17:22;7.40;99.90
21906;DHT22;11117;48.644;9.006;2023-04-01T05:19:48;7.50;99.90
21906;DHT22;11117;48.644;9.006;2023-04-01T05:22:13;7.50;99.90
21906;DHT22;11117;48.644;9.006;2023-04-01T05:24:39;7.50;99.90
21906;DHT22;11117;48.644;9.006;2023-04-01T05:27:04;7.60;99.90
21906;DHT22;11117;48.644;9.006;2023-04-01T05:29:30;7.70;99.90
21906;DHT22;11117;48.644;9.006;2023-04-01T05:31:55;7.80;99.90
21906;DHT22;11117;48.644;9.006;2023-04-01T05:34:21;7.80;99.90
21906;DHT22;11117;48.644;9.006;2023-04-01T05:36:47;8.00;99.90
21906;DHT22;11117;48.644;9.006;2023-04-01T05:39:13;8.00;99.90
21906;DHT22;11117;48.644;9.006;2023-04-01T05:41:38;8.00;99.90
21906;DHT22;11117;48.644;9.006;2023-04-01T05:44:04;8.00;99.90
21906;DHT22;11117;48.644;9.006;2023-04-01T05:46:31;7.90;99.90
21906;DHT22;11117;48.644;9.006;2023-04-01T05:48:57;8.10;99.90
21906;DHT22;11117;48.644;9.006;2023-04-01T05:51:23;8.00;99.90
21906;DHT22;11117;48.644;9.006;2023-04-01T05:53:49;8.10;99.90
21906;DHT22;11117;48.644;9.006;2023-04-01T05:56:15;8.40;99.90
21906;DHT22;11117;48.644;9.006;2023-04-01T05:58:40;8.40;99.90
21906;DHT22;11117;48.644;9.006;2023-04-01T06:01:08;8.40;99.90
21906;DHT22;11117;48.644;9.006;2023-04-01T06:03:34;8.50;99.90
21906;DHT22;11117;48.644;9.006;2023-04-01T06:06:00;8.40;99.90
21906;DHT22;11117;48.644;9.006;2023-04-01T06:08:26;8.50;99.90
21906;DHT22;11117;48.644;9.006;2023-04-01T06:13:48;8.80;99.90
21906;DHT22;11117;48.644;9.006;2023-04-01T06:24:26;8.80;99.90
21906;DHT22;11117;48.644;9.006;2023-04-01T06:29:52;8.80;99.90
21906;DHT22;11117;48.644;9.006;2023-04-01T06:35:27;8.90;99.90
21906;DHT22;11117;48.644;9.006;2023-04-01T06:38:13;8.90;99.90
21906;DHT22;11117;48.644;9.006;2023-04-01T06:43:48;8.90;99.90
21906;DHT22;11117;48.644;9.006;2023-04-01T06:49:40;9.00;99.90
21906;DHT22;11117;48.644;9.006;2023-04-01T06:52:19;8.90;99.90
21906;DHT22;11117;48.644;9.006;2023-04-01T06:55:24;8.90;99.90
21906;DHT22;11117;48.644;9.006;2023-04-01T06:57:49;8.70;99.90
21906;DHT22;11117;48.644;9.006;2023-04-01T07:00:33;8.90;99.90
21906;DHT22;11117;48.644;9.006;2023-04-01T07:03:05;9.20;99.90
21906;DHT22;11117;48.644;9.006;2023-04-01T07:05:33;9.30;99.90
21906;DHT22;11117;48.644;9.006;2023-04-01T07:08:02;9.30;99.90
21906;DHT22;11117;48.644;9.006;2023-04-01T07:10:43;9.40;99.90
21906;DHT22;11117;48.644;9.006;2023-04-01T07:13:41;9.50;99.90
21906;DHT22;11117;48.644;9.006;2023-04-01T07:16:19;9.60;99.90
21906;DHT22;11117;48.644;9.006;2023-04-01T07:19:24;9.60;99.90
21906;DHT22;11117;48.644;9.006;2023-04-01T07:22:04;9.70;99.90
21906;DHT22;11117;48.644;9.006;2023-04-01T07:24:36;9.70;99.90
21906;DHT22;11117;48.644;9.006;2023-04-01T07:27:04;9.50;99.90
21906;DHT22;11117;48.644;9.006;2023-04-01T07:29:30;9.40;99.90
21906;DHT22;11117;48.644;9.006;2023-04-01T07:49:17;9.40;99.90
21906;DHT22;11117;48.644;9.006;2023-04-01T07:52:06;9.60;99.90
21906;DHT22;11117;48.644;9.006;2023-04-01T07:54:50;9.60;99.90
21906;DHT22;11117;48.644;9.006;2023-04-01T07:57:20;9.60;99.90
21906;DHT22;11117;48.644;9.006;2023-04-01T08:00:02;9.80;99.90
21906;DHT22;11117;48.644;9.006;2023-04-01T08:10:57;9.40;99.90
21906;DHT22;11117;48.644;9.006;2023-04-01T08:13:36;9.20;99.90
21906;DHT22;11117;48.644;9.006;2023-04-01T08:18:44;9.30;99.90
21906;DHT22;11117;48.644;9.006;2023-04-01T08:21:20;9.30;99.90
21906;DHT22;11117;48.644;9.006;2023-04-01T08:23:49;9.30;99.90
21906;DHT22;11117;48.644;9.006;2023-04-01T08:29:10;9.20;99.90
21906;DHT22;11117;48.644;9.006;2023-04-01T08:31:53;9.00;99.90
21906;DHT22;11117;48.644;9.006;2023-04-01T08:34:25;9.00;99.90
21906;DHT22;11117;48.644;9.006;2023-04-01T08:36:59;8.90;99.90
21906;DHT22;11117;48.644;9.006;2023-04-01T08:39:33;9.00;99.90
21906;DHT22;11117;48.644;9.006;2023-04-01T08:48:27;8.60;99.90
21906;DHT22;11117;48.644;9.006;2023-04-01T08:56:53;8.70;99.90
21906;DHT22;11117;48.644;9.006;2023-04-01T09:11:04;9.50;99.90
21906;DHT22;11117;48.644;9.006;2023-04-01T09:14:15;9.40;99.90
21906;DHT22;11117;48.644;9.006;2023-04-01T09:22:22;9.90;99.90
21906;DHT22;11117;48.644;9.006;2023-04-01T09:25:02;10.00;99.90
21906;DHT22;11117;48.644;9.006;2023-04-01T09:35:47;9.70;99.90
21906;DHT22;11117;48.644;9.006;2023-04-01T09:40:56;9.50;99.90
21906;DHT22;11117;48.644;9.006;2023-04-01T09:43:38;9.60;99.90
21906;DHT22;11117;48.644;9.006;2023-04-01T10:00:10;9.50;99.90
21906;DHT22;11117;48.644;9.006;2023-04-01T10:14:37;9.40;99.90
21906;DHT22;11117;48.644;9.006;2023-04-01T10:19:44;9.60;99.90
21906;DHT22;11117;48.644;9.006;2023-04-01T10:39:04;10.30;99.90
21906;DHT22;11117;48.644;9.006;2023-04-01T10:44:27;10.80;99.90
21906;DHT22;11117;48.644;9.006;2023-04-01T10:53:44;11.30;99.90
21906;DHT22;11117;48.644;9.006;2023-04-01T11:04:33;12.00;99.90
21906;DHT22;11117;48.644;9.006;2023-04-01T11:16:07;11.40;99.90
21906;DHT22;11117;48.644;9.006;2023-04-01T11:18:55;11.40;99.90
21906;DHT22;11117;48.644;9.006;2023-04-01T11:30:26;11.20;99.90
21906;DHT22;11117;48.644;9.006;2023-04-01T11:43:57;11.00;99.90
21906;DHT22;11117;48.644;9.006;2023-04-01T11:49:42;11.30;99.90
21906;DHT22;11117;48.644;9.006;2023-04-01T11:52:25;11.40;99.90
21906;DHT22;11117;48.644;9.006;2023-04-01T11:55:30;11.50;99.90
21906;DHT22;11117;48.644;9.006;2023-04-01T12:03:48;12.20;99.90
21906;DHT22;11117;48.644;9.006;2023-04-01T12:09:46;11.50;99.90
21906;DHT22;11117;48.644;9.006;2023-04-01T12:17:40;12.50;99.90
21906;DHT22;11117;48.644;9.006;2023-04-01T12:22:50;12.40;99.90
21906;DHT22;11117;48.644;9.006;2023-04-01T12:30:56;11.70;99.90
21906;DHT22;11117;48.644;9.006;2023-04-01T12:36:35;11.90;99.90
21906;DHT22;11117;48.644;9.006;2023-04-01T12:39:56;11.70;99.90
21906;DHT22;11117;48.644;9.006;2023-04-01T12:45:31;11.70;99.90
21906;DHT22;11117;48.644;9.006;2023-04-01T12:48:20;11.50;99.90
21906;DHT22;11117;48.644;9.006;2023-04-01T12:50:57;11.40;99.90
21906;DHT22;11117;48.644;9.006;2023-04-01T12:56:32;11.40;99.90
21906;DHT22;11117;48.644;9.006;2023-04-01T13:05:05;12.40;99.90
21906;DHT22;11117;48.644;9.006;2023-04-01T13:13:33;12.30;99.90
21906;DHT22;11117;48.644;9.006;2023-04-01T13:24:15;11.90;99.90
21906;DHT22;11117;48.644;9.006;2023-04-01T13:32:54;11.70;99.90
21906;DHT22;11117;48.644;9.006;2023-04-01T13:38:12;12.10;99.90
21906;DHT22;11117;48.644;9.006;2023-04-01T13:43:42;12.20;99.90
21906;DHT22;11117;48.644;9.006;2023-04-01T13:46:29;12.30;99.90
21906;DHT22;11117;48.644;9.006;2023-04-01T13:58:02;11.20;99.90
21906;DHT22;11117;48.644;9.006;2023-04-01T14:06:14;11.30;99.90
21906;DHT22;11117;48.644;9.006;2023-04-01T14:17:07;11.10;99.90
21906;DHT22;11117;48.644;9.006;2023-04-01T14:25:25;11.00;99.90
21906;DHT22;11117;48.644;9.006;2023-04-01T14:31:21;10.90;99.90
21906;DHT22;11117;48.644;9.006;2023-04-01T14:34:21;10.80;99.90
21906;DHT22;11117;48.644;9.006;2023-04-01T14:37:10;10.70;99.90
21906;DHT22;11117;48.644;9.006;2023-04-01T14:46:23;10.80;99.90
21906;DHT22;11117;48.644;9.006;2023-04-01T14:48:50;10.60;99.90
21906;DHT22;11117;48.644;9.006;2023-04-01T14:59:28;10.60;99.90
21906;DHT22;11117;48.644;9.006;2023-04-01T15:04:46;10.80;99.90
21906;DHT22;11117;48.644;9.006;2023-04-01T15:07:35;10.60;99.90
21906;DHT22;11117;48.644;9.006;2023-04-01T15:22:32;10.60;99.90
21906;DHT22;11117;48.644;9.006;2023-04-01T15:34:02;10.60;99.90
21906;DHT22;11117;48.644;9.006;2023-04-01T15:36:57;10.40;99.90
21906;DHT22;11117;48.644;9.006;2023-04-01T15:39:54;10.20;99.90
21906;DHT22;11117;48.644;9.006;2023-04-01T15:47:35;10.20;99.90
21906;DHT22;11117;48.644;9.006;2023-04-01T15:55:31;9.90;99.90
21906;DHT22;11117;48.644;9.006;2023-04-01T16:00:58;9.80;99.90
21906;DHT22;11117;48.644;9.006;2023-04-01T16:03:57;9.90;99.90
21906;DHT22;11117;48.644;9.006;2023-04-01T16:06:45;9.80;99.90
21906;DHT22;11117;48.644;9.006;2023-04-01T16:12:23;9.80;99.90
21906;DHT22;11117;48.644;9.006;2023-04-01T16:15:18;9.80;99.90
21906;DHT22;11117;48.644;9.006;2023-04-01T16:23:26;10.10;99.90
21906;DHT22;11117;48.644;9.006;2023-04-01T16:37:52;9.90;99.90
21906;DHT22;11117;48.644;9.006;2023-04-01T16:42:51;9.80;99.90
21906;DHT22;11117;48.644;9.006;2023-04-01T16:46:06;9.70;99.90
21906;DHT22;11117;48.644;9.006;2023-04-01T16:48:12;9.60;99.90
21906;DHT22;11117;48.644;9.006;2023-04-01T16:53:25;9.90;99.90
21906;DHT22;11117;48.644;9.006;2023-04-01T16:58:48;9.70;99.90
21906;DHT22;11117;48.644;9.006;2023-04-01T17:01:30;9.70;99.90
21906;DHT22;11117;48.644;9.006;2023-04-01T17:04:34;9.60;99.90
21906;DHT22;11117;48.644;9.006;2023-04-01T17:15:41;10.00;99.90
21906;DHT22;11117;48.644;9.006;2023-04-01T17:20:56;10.10;99.90
21906;DHT22;11117;48.644;9.006;2023-04-01T17:29:21;10.20;99.90
21906;DHT22;11117;48.644;9.006;2023-04-01T17:31:41;10.20;99.90
21906;DHT22;11117;48.644;9.006;2023-04-01T17:34:42;10.20;99.90
21906;DHT22;11117;48.644;9.006;2023-04-01T17:37:23;10.10;99.90
21906;DHT22;11117;48.644;9.006;2023-04-01T17:39:57;9.90;99.90
21906;DHT22;11117;48.644;9.006;2023-04-01T17:52:55;9.80;99.90
21906;DHT22;11117;48.644;9.006;2023-04-01T17:58:37;9.60;99.90
21906;DHT22;11117;48.644;9.006;2023-04-01T18:01:21;9.50;99.90
21906;DHT22;11117;48.644;9.006;2023-04-01T18:10:00;9.30;99.90
21906;DHT22;11117;48.644;9.006;2023-04-01T18:15:32;8.80;99.90
21906;DHT22;11117;48.644;9.006;2023-04-01T18:21:15;8.60;99.90
21906;DHT22;11117;48.644;9.006;2023-04-01T18:23:50;8.30;99.90
21906;DHT22;11117;48.644;9.006;2023-04-01T18:26:21;8.10;99.90
21906;DHT22;11117;48.644;9.006;2023-04-01T18:31:45;8.00;99.90
21906;DHT22;11117;48.644;9.006;2023-04-01T18:34:32;7.90;99.90
21906;DHT22;11117;48.644;9.006;2023-04-01T18:37:46;7.80;99.90
21906;DHT22;11117;48.644;9.006;2023-04-01T18:40:20;7.80;99.90
21906;DHT22;11117;48.644;9.006;2023-04-01T18:51:16;7.40;99.90
21906;DHT22;11117;48.644;9.006;2023-04-01T18:56:14;7.20;99.90
21906;DHT22;11117;48.644;9.006;2023-04-01T18:58:52;7.20;99.90
21906;DHT22;11117;48.644;9.006;2023-04-01T19:01:23;7.20;99.90
21906;DHT22;11117;48.644;9.006;2023-04-01T19:04:18;7.10;99.90
21906;DHT22;11117;48.644;9.006;2023-04-01T19:09:21;7.00;99.90
21906;DHT22;11117;48.644;9.006;2023-04-01T19:14:59;6.90;99.90
21906;DHT22;11117;48.644;9.006;2023-04-01T19:23:07;6.80;99.90
21906;DHT22;11117;48.644;9.006;2023-04-01T19:25:44;6.80;99.90
21906;DHT22;11117;48.644;9.006;2023-04-01T19:28:28;6.80;99.90
21906;DHT22;11117;48.644;9.006;2023-04-01T19:31:44;6.80;99.90
21906;DHT22;11117;48.644;9.006;2023-04-01T19:37:31;6.80;99.90
21906;DHT22;11117;48.644;9.006;2023-04-01T19:42:43;6.70;99.90
21906;DHT22;11117;48.644;9.006;2023-04-01T19:45:32;6.70;99.90
21906;DHT22;11117;48.644;9.006;2023-04-01T19:51:09;6.70;99.90
21906;DHT22;11117;48.644;9.006;2023-04-01T19:54:01;6.70;99.90
21906;DHT22;11117;48.644;9.006;2023-04-01T19:59:26;6.60;99.90
21906;DHT22;11117;48.644;9.006;2023-04-01T20:04:49;6.60;99.90
21906;DHT22;11117;48.644;9.006;2023-04-01T20:10:09;6.60;99.90
21906;DHT22;11117;48.644;9.006;2023-04-01T20:13:18;6.60;99.90
21906;DHT22;11117;48.644;9.006;2023-04-01T20:16:06;6.60;99.90
21906;DHT22;11117;48.644;9.006;2023-04-01T20:18:49;6.60;99.90
21906;DHT22;11117;48.644;9.006;2023-04-01T20:24:13;6.80;99.90
21906;DHT22;11117;48.644;9.006;2023-04-01T20:26:46;6.90;99.90
21906;DHT22;11117;48.644;9.006;2023-04-01T20:37:48;7.20;99.90
21906;DHT22;11117;48.644;9.006;2023-04-01T20:46:10;7.30;99.90
21906;DHT22;11117;48.644;9.006;2023-04-01T20:51:32;7.40;99.90
21906;DHT22;11117;48.644;9.006;2023-04-01T21:02:20;7.20;99.90
21906;DHT22;11117;48.644;9.006;2023-04-01T21:11:16;7.60;99.90
21906;DHT22;11117;48.644;9.006;2023-04-01T21:16:36;7.70;99.90
21906;DHT22;11117;48.644;9.006;2023-04-01T21:19:27;7.60;99.90
21906;DHT22;11117;48.644;9.006;2023-04-01T21:38:38;7.20;99.90
21906;DHT22;11117;48.644;9.006;2023-04-01T22:00:53;7.30;99.90
21906;DHT22;11117;48.644;9.006;2023-04-01T22:06:34;7.30;99.90
21906;DHT22;11117;48.644;9.006;2023-04-01T22:12:07;7.50;99.90
21906;DHT22;11117;48.644;9.006;2023-04-01T22:20:27;7.40;99.90
21906;DHT22;11117;48.644;9.006;2023-04-01T22:28:29;7.30;99.90
21906;DHT22;11117;48.644;9.006;2023-04-01T22:30:59;7.20;99.90
21906;DHT22;11117;48.644;9.006;2023-04-01T22:33:50;7.10;99.90
21906;DHT22;11117;48.644;9.006;2023-04-01T22:39:15;7.20;99.90
21906;DHT22;11117;48.644;9.006;2023-04-01T22:56:18;6.90;99.90
21906;DHT22;11117;48.644;9.006;2023-04-01T22:58:54;6.90;99.90
21906;DHT22;11117;48.644;9.006;2023-04-01T23:01:25;6.80;99.90
21906;DHT22;11117;48.644;9.006;2023-04-01T23:03:52;6.60;99.90
21906;DHT22;11117;48.644;9.006;2023-04-01T23:06:32;6.60;99.90
21906;DHT22;11117;48.644;9.006;2023-04-01T23:09:15;6.50;99.90
21906;DHT22;11117;48.644;9.006;2023-04-01T23:11:55;6.40;99.90
21906;DHT22;11117;48.644;9.006;2023-04-01T23:19:57;6.10;99.90
21906;DHT22;11117;48.644;9.006;2023-04-01T23:22:54;5.90;99.90
21906;DHT22;11117;48.644;9.006;2023-04-01T23:25:44;5.80;99.90
21906;DHT22;11117;48.644;9.006;2023-04-01T23:31:00;5.80;99.90
21906;DHT22;11117;48.644;9.006;2023-04-01T23:33:30;5.80;99.90
21906;DHT22;11117;48.644;9.006;2023-04-01T23:36:12;5.80;99.90
21906;DHT22;11117;48.644;9.006;2023-04-01T23:38:41;6.00;99.90
21906;DHT22;11117;48.644;9.006;2023-04-01T23:41:17;6.10;99.90
21906;DHT22;11117;48.644;9.006;2023-04-01T23:43:45;6.20;99.90
21906;DHT22;11117;48.644;9.006;2023-04-01T23:46:14;6.30;99.90
21906;DHT22;11117;48.644;9.006;2023-04-01T23:48:42;6.30;99.90
21906;DHT22;11117;48.644;9.006;2023-04-01T23:53:47;6.50;99.90
21906;DHT22;11117;48.644;9.006;2023-04-01T23:56:16;6.50;99.90
21906;DHT22;11117;48.644;9.006;2023-04-01T23:58:50;6.60;99.90
